Time;durP1;ratioP1;P1;durP2;ratioP2;P2;SDS_P1;SDS_P2;PMS_P1;PMS_P2;Temp;Humidity;BMP_temperature;BMP_pressure;BME280_temperature;BME280_humidity;BME280_pressure;Samples;Min_cycle;Max_cycle;Signal;HPM_P1;HPM_P2
2021/04/12 00:00:34;;;;;;;16.75;14.32;;;6.90;95.60;;;;;;2064666;28;20022;-75
2021/04/12 00:01:49;;;;;;;17.98;15.32;;;6.90;95.70;;;;;;2064651;28;20533;-75
2021/04/12 00:03:13;;;;;;;16.80;15.00;;;6.90;96.20;;;;;;2064736;28;20040;-74
2021/04/12 00:04:33;;;;;;;16.10;13.70;;;6.90;95.50;;;;;;2065029;28;20116;-75
2021/04/12 00:06:01;;;;;;;16.13;13.70;;;6.80;94.90;;;;;;2064064;28;20158;-74
2021/04/12 00:07:26;;;;;;;17.05;14.30;;;6.70;94.90;;;;;;2064150;28;20034;-74
2021/04/12 00:08:49;;;;;;;15.52;13.82;;;6.60;95.10;;;;;;2063810;28;20077;-74
2021/04/12 00:10:00;;;;;;;18.25;14.63;;;6.60;95.30;;;;;;2064134;28;20030;-74
2021/04/12 00:11:22;;;;;;;17.33;14.02;;;6.50;95.20;;;;;;2064412;28;20018;-74
2021/04/12 00:12:40;;;;;;;17.00;14.32;;;6.50;95.40;;;;;;2064679;28;20018;-74
2021/04/12 00:13:54;;;;;;;15.73;13.75;;;6.50;95.40;;;;;;2065306;28;20026;-74
2021/04/12 00:14:58;;;;;;;17.70;14.32;;;6.50;95.40;;;;;;2064085;28;20050;-74
2021/04/12 00:16:11;;;;;;;16.90;14.43;;;6.50;95.40;;;;;;2064200;28;20026;-74
2021/04/12 00:17:32;;;;;;;18.00;14.90;;;6.60;95.40;;;;;;2064310;28;20501;-74
2021/04/12 00:18:52;;;;;;;18.73;15.05;;;6.60;95.60;;;;;;2066672;28;20504;-74
2021/04/12 00:20:01;;;;;;;16.23;14.25;;;6.60;95.70;;;;;;2063923;28;20030;-74
2021/04/12 00:21:09;;;;;;;18.00;15.30;;;6.60;96.00;;;;;;2063887;28;20125;-74
2021/04/12 00:22:36;;;;;;;16.02;14.32;;;6.60;96.10;;;;;;2064378;28;20030;-74
2021/04/12 00:23:47;;;;;;;18.02;14.35;;;6.70;96.00;;;;;;2064533;28;20030;-75
2021/04/12 00:24:52;;;;;;;;;;;6.70;96.10;;;;;;2065069;28;20022;-75
2021/04/12 00:26:04;;;;;;;17.50;14.38;;;6.70;96.00;;;;;;2064182;28;19976;-75
2021/04/12 00:27:18;;;;;;;17.63;14.98;;;6.70;95.80;;;;;;2064654;28;20023;-75
2021/04/12 00:28:32;;;;;;;16.85;14.00;;;6.70;95.70;;;;;;2064737;28;20022;-75
2021/04/12 00:29:55;;;;;;;18.80;15.40;;;6.60;95.60;;;;;;2064585;28;20030;-74
2021/04/12 00:31:29;;;;;;;16.45;14.13;;;6.60;95.90;;;;;;2064495;28;20034;-74
2021/04/12 00:32:35;;;;;;;17.23;13.32;;;6.60;95.90;;;;;;2043019;28;20038;-74
2021/04/12 00:33:51;;;;;;;16.25;13.48;;;6.60;95.50;;;;;;2056627;28;20501;-75
2021/04/12 00:35:04;;;;;;;16.75;13.40;;;6.50;95.00;;;;;;2064078;28;20045;-74
2021/04/12 00:36:23;;;;;;;16.13;13.60;;;6.50;94.90;;;;;;2063327;28;20050;-75
2021/04/12 00:37:32;;;;;;;18.00;13.90;;;6.50;95.00;;;;;;2066427;28;20035;-74
2021/04/12 00:38:52;;;;;;;16.08;13.65;;;6.50;95.20;;;;;;2071193;28;20058;-74
2021/04/12 00:40:01;;;;;;;17.52;14.32;;;6.50;95.30;;;;;;2064384;28;20081;-75
2021/04/12 00:41:24;;;;;;;16.73;14.45;;;6.50;95.30;;;;;;2064507;28;20038;-74
2021/04/12 00:43:28;;;;;;;16.55;14.48;;;6.50;95.40;;;;;;2063708;28;20026;-75
2021/04/12 00:44:39;;;;;;;20.10;15.63;;;6.50;95.60;;;;;;2039319;29;20031;-74
2021/04/12 00:46:01;;;;;;;18.80;15.00;;;6.50;95.90;;;;;;2039472;29;20035;-74
2021/04/12 00:47:10;;;;;;;18.88;13.95;;;6.50;95.60;;;;;;2039392;29;20789;-74
2021/04/12 00:48:42;;;;;;;17.43;14.23;;;6.40;95.60;;;;;;2031414;29;20038;-74
2021/04/12 00:50:11;;;;;;;16.95;14.07;;;6.40;95.90;;;;;;2036742;28;20838;-75
2021/04/12 00:51:50;;;;;;;18.38;15.07;;;6.40;96.30;;;;;;2058936;28;20034;-74
2021/04/12 00:53:35;;;;;;;17.63;13.77;;;6.40;96.60;;;;;;2028417;29;20833;-75
2021/04/12 00:54:49;;;;;;;17.98;14.75;;;6.30;96.30;;;;;;2048656;28;20042;-75
2021/04/12 00:55:57;;;;;;;15.63;12.95;;;6.40;96.40;;;;;;2063379;28;20477;-74
2021/04/12 00:57:03;;;;;;;17.65;14.15;;;6.30;96.10;;;;;;2056631;28;20034;-75
2021/04/12 00:58:30;;;;;;;17.67;14.10;;;6.30;96.30;;;;;;2063727;28;20606;-75
2021/04/12 01:00:00;;;;;;;15.88;12.18;;;6.20;96.40;;;;;;2064138;28;20089;-75
2021/04/12 01:01:11;;;;;;;15.60;12.50;;;6.30;96.10;;;;;;2064272;28;20037;-75
2021/04/12 01:02:34;;;;;;;14.40;12.13;;;6.20;95.80;;;;;;2064337;28;20026;-75
2021/04/12 01:03:57;;;;;;;15.90;12.35;;;6.20;95.90;;;;;;2063854;28;20178;-74
2021/04/12 01:05:25;;;;;;;15.13;11.55;;;6.20;95.90;;;;;;2066996;28;20030;-75
2021/04/12 01:06:56;;;;;;;13.90;10.93;;;6.20;95.60;;;;;;2063195;28;20536;-75
2021/04/12 01:08:19;;;;;;;12.18;10.55;;;6.30;95.70;;;;;;2063966;28;20050;-74
2021/04/12 01:09:28;;;;;;;13.38;10.10;;;6.30;95.70;;;;;;2063565;28;20078;-74
2021/04/12 01:10:30;;;;;;;12.35;9.50;;;6.40;95.30;;;;;;2064889;28;20568;-74
2021/04/12 01:12:26;;;;;;;13.07;10.63;;;6.40;95.30;;;;;;2071697;28;20417;-74
2021/04/12 01:13:54;;;;;;;12.98;10.32;;;6.30;95.00;;;;;;2058610;28;20125;-75
2021/04/12 01:15:13;;;;;;;14.85;10.52;;;6.20;95.60;;;;;;2059324;28;20022;-75
2021/04/12 01:16:32;;;;;;;13.68;11.02;;;6.20;96.00;;;;;;2065631;28;20027;-74
2021/04/12 01:17:51;;;;;;;14.60;10.93;;;6.20;96.00;;;;;;2069782;28;20109;-75
2021/04/12 01:18:57;;;;;;;14.05;10.77;;;6.20;96.00;;;;;;2066512;28;20070;-75
2021/04/12 01:20:38;;;;;;;14.27;10.95;;;6.20;96.00;;;;;;2067211;28;20041;-75
2021/04/12 01:22:08;;;;;;;11.15;9.68;;;6.20;96.10;;;;;;2068301;28;20077;-75
2021/04/12 01:23:47;;;;;;;12.38;10.15;;;6.10;96.00;;;;;;2068436;28;20035;-75
2021/04/12 01:25:24;;;;;;;11.57;9.45;;;6.10;96.60;;;;;;2034998;28;20048;-74
2021/04/12 01:26:51;;;;;;;11.20;9.77;;;6.00;95.90;;;;;;2066150;28;20038;-74
2021/04/12 01:28:30;;;;;;;10.10;8.65;;;6.00;96.10;;;;;;2069600;28;20073;-74
2021/04/12 01:30:09;;;;;;;11.60;9.50;;;6.00;95.60;;;;;;2068235;28;20038;-74
2021/04/12 01:31:19;;;;;;;11.70;8.80;;;5.90;95.70;;;;;;2065398;28;20513;-75
2021/04/12 01:32:24;;;;;;;10.27;8.68;;;5.90;95.90;;;;;;2065713;28;20030;-74
2021/04/12 01:33:47;;;;;;;10.18;8.75;;;5.90;96.10;;;;;;2065701;28;20481;-75
2021/04/12 01:34:53;;;;;;;11.73;9.25;;;6.00;95.80;;;;;;2065510;28;20037;-74
2021/04/12 01:36:21;;;;;;;12.63;8.95;;;6.00;95.60;;;;;;2065042;28;20030;-75
2021/04/12 01:37:38;;;;;;;10.93;8.98;;;6.00;95.20;;;;;;2065338;28;20070;-75
2021/04/12 01:39:11;;;;;;;10.70;8.63;;;5.90;95.10;;;;;;2065434;28;20028;-75
2021/04/12 01:40:26;;;;;;;11.68;8.93;;;5.90;95.50;;;;;;2065517;28;20077;-75
2021/04/12 01:41:33;;;;;;;10.10;8.77;;;5.90;95.30;;;;;;2065428;28;20061;-75
2021/04/12 01:42:52;;;;;;;11.02;8.57;;;6.00;95.20;;;;;;2065517;28;20084;-75
2021/04/12 01:43:55;;;;;;;8.88;7.97;;;6.00;95.30;;;;;;2065548;28;20474;-75
2021/04/12 01:45:05;;;;;;;12.45;8.43;;;6.10;95.10;;;;;;2065427;28;20032;-74
2021/04/12 01:46:11;;;;;;;10.65;8.18;;;6.00;94.60;;;;;;2065167;28;20038;-74
2021/04/12 01:47:28;;;;;;;8.77;7.85;;;6.10;94.70;;;;;;2065585;28;20101;-74
2021/04/12 01:48:47;;;;;;;10.48;7.72;;;6.10;94.30;;;;;;2065474;28;20038;-74
2021/04/12 01:50:06;;;;;;;8.30;7.28;;;6.10;94.10;;;;;;2065408;28;20062;-74
2021/04/12 01:51:39;;;;;;;8.95;7.20;;;6.10;93.60;;;;;;2064916;28;20478;-74
2021/04/12 01:53:03;;;;;;;7.85;6.85;;;6.10;93.30;;;;;;2046002;28;20474;-74
2021/04/12 01:54:20;;;;;;;9.57;7.25;;;6.10;93.30;;;;;;2065881;28;20046;-75
2021/04/12 01:56:03;;;;;;;8.63;6.90;;;6.10;93.30;;;;;;2066068;28;20026;-75
2021/04/12 01:57:17;;;;;;;10.23;7.90;;;6.10;93.30;;;;;;2065910;28;20018;-74
2021/04/12 01:58:43;;;;;;;10.18;7.60;;;6.00;93.50;;;;;;2065968;28;20390;-75
2021/04/12 02:00:04;;;;;;;10.93;8.27;;;6.00;93.70;;;;;;2066114;28;20041;-75
2021/04/12 02:01:25;;;;;;;10.13;7.90;;;6.00;93.90;;;;;;2065545;28;20097;-75
2021/04/12 02:02:50;;;;;;;11.95;8.90;;;6.00;94.30;;;;;;2065609;28;20360;-74
2021/04/12 02:03:59;;;;;;;11.63;8.90;;;6.00;94.90;;;;;;2065507;28;20027;-75
2021/04/12 02:05:24;;;;;;;11.63;9.63;;;5.90;95.20;;;;;;2064638;28;20035;-74
2021/04/12 02:06:39;;;;;;;13.55;9.73;;;5.90;95.40;;;;;;2064596;28;20056;-75
2021/04/12 02:08:17;;;;;;;10.73;9.63;;;5.80;95.60;;;;;;2065346;28;20038;-74
2021/04/12 02:09:41;;;;;;;11.40;9.57;;;5.70;95.60;;;;;;2065247;28;20061;-75
2021/04/12 02:11:10;;;;;;;11.80;10.10;;;5.80;95.80;;;;;;2065229;28;20034;-75
2021/04/12 02:12:51;;;;;;;13.43;10.60;;;5.80;96.30;;;;;;2064526;28;20033;-75
2021/04/12 02:14:27;;;;;;;12.43;10.38;;;5.70;96.20;;;;;;2069973;28;20029;-75
2021/04/12 02:15:50;;;;;;;14.48;11.45;;;5.70;96.60;;;;;;2064619;28;20046;-74
2021/04/12 02:17:11;;;;;;;13.57;10.93;;;5.70;96.60;;;;;;2067547;28;20057;-74
2021/04/12 02:18:43;;;;;;;13.30;10.95;;;5.60;96.70;;;;;;2070189;28;20038;-74
2021/04/12 02:20:16;;;;;;;13.70;11.13;;;5.60;97.30;;;;;;2065192;28;20034;-74
2021/04/12 02:21:31;;;;;;;14.75;10.75;;;5.70;97.20;;;;;;2065142;28;20042;-73
2021/04/12 02:22:59;;;;;;;12.50;10.25;;;5.60;96.70;;;;;;2064596;28;20038;-75
2021/04/12 02:24:22;;;;;;;12.20;10.63;;;5.60;96.60;;;;;;2064794;28;20058;-75
2021/04/12 02:25:45;;;;;;;12.95;10.75;;;5.50;96.80;;;;;;2065014;28;20041;-75
2021/04/12 02:27:02;;;;;;;13.02;10.48;;;5.50;96.70;;;;;;2064371;28;20620;-74
2021/04/12 02:28:38;;;;;;;12.68;10.70;;;5.40;96.80;;;;;;2065320;28;20037;-75
2021/04/12 02:29:55;;;;;;;13.27;10.63;;;5.40;96.90;;;;;;2065389;28;20478;-75
2021/04/12 02:31:38;;;;;;;14.93;11.32;;;5.30;97.00;;;;;;2064963;28;20030;-75
2021/04/12 02:33:04;;;;;;;13.15;10.90;;;5.30;97.50;;;;;;2032094;29;20051;-74
2021/04/12 02:34:38;;;;;;;13.77;10.65;;;5.30;97.90;;;;;;2049165;28;20042;-74
2021/04/12 02:36:19;;;;;;;12.50;10.25;;;5.30;97.60;;;;;;2064951;28;20026;-74
2021/04/12 02:37:38;;;;;;;14.57;11.18;;;5.20;97.50;;;;;;2064927;28;20026;-74
2021/04/12 02:38:59;;;;;;;15.23;11.18;;;5.20;97.80;;;;;;2063963;28;20022;-74
2021/04/12 02:40:19;;;;;;;13.82;11.00;;;5.20;97.70;;;;;;2067022;28;20125;-74
2021/04/12 02:41:51;;;;;;;13.97;10.80;;;5.20;97.70;;;;;;2070235;28;20033;-75
2021/04/12 02:43:06;;;;;;;14.80;11.40;;;5.20;97.50;;;;;;2064865;28;20296;-74
2021/04/12 02:44:38;;;;;;;13.50;11.43;;;5.20;97.90;;;;;;2064887;28;20023;-74
2021/04/12 02:45:57;;;;;;;12.82;10.63;;;5.20;98.10;;;;;;2065419;28;20026;-75
2021/04/12 02:47:33;;;;;;;13.48;11.32;;;5.20;97.70;;;;;;2065056;28;20049;-74
2021/04/12 02:48:39;;;;;;;14.40;10.88;;;5.20;97.90;;;;;;2065254;28;20378;-75
2021/04/12 02:50:01;;;;;;;12.40;10.80;;;5.20;97.60;;;;;;2064921;28;20069;-74
2021/04/12 02:51:14;;;;;;;13.55;10.85;;;5.20;97.70;;;;;;2064950;28;20030;-74
2021/04/12 02:52:50;;;;;;;13.13;10.43;;;5.20;97.60;;;;;;2064873;28;20485;-74
2021/04/12 02:54:23;;;;;;;13.38;10.40;;;5.20;97.60;;;;;;2034595;28;20110;-74
2021/04/12 02:56:04;;;;;;;12.63;10.23;;;5.20;97.70;;;;;;2064937;28;20037;-75
2021/04/12 02:57:20;;;;;;;11.45;9.77;;;5.20;97.70;;;;;;2064892;28;20018;-75
2021/04/12 02:58:29;;;;;;;11.30;9.18;;;5.20;97.20;;;;;;2064980;28;20027;-74
2021/04/12 02:59:42;;;;;;;11.73;9.73;;;5.20;97.00;;;;;;2064841;28;20022;-74
2021/04/12 03:01:04;;;;;;;13.75;10.32;;;5.20;97.20;;;;;;2064935;28;20027;-74
2021/04/12 03:02:35;;;;;;;12.55;10.82;;;5.20;97.30;;;;;;2065043;28;20042;-75
2021/04/12 03:03:54;;;;;;;13.23;10.43;;;5.20;97.20;;;;;;2064354;28;20023;-75
2021/04/12 03:05:10;;;;;;;12.20;9.85;;;5.10;97.10;;;;;;2066689;28;20162;-75
2021/04/12 03:06:48;;;;;;;13.38;10.57;;;5.10;97.40;;;;;;2063958;28;20481;-74
2021/04/12 03:08:08;;;;;;;12.52;9.90;;;5.10;97.90;;;;;;2064500;28;20029;-74
2021/04/12 03:09:25;;;;;;;13.02;10.02;;;5.10;98.00;;;;;;2064623;28;20050;-74
2021/04/12 03:10:58;;;;;;;12.05;8.93;;;5.20;97.60;;;;;;2064644;28;20029;-74
2021/04/12 03:12:30;;;;;;;11.43;9.63;;;5.20;97.20;;;;;;2061157;28;20493;-74
2021/04/12 03:14:08;;;;;;;10.93;9.50;;;5.20;97.40;;;;;;2064020;28;20025;-75
2021/04/12 03:15:50;;;;;;;14.50;10.18;;;5.10;97.00;;;;;;2064456;28;20121;-74
2021/04/12 03:17:05;;;;;;;11.85;9.65;;;5.10;97.20;;;;;;2064648;28;20097;-75
2021/04/12 03:18:22;;;;;;;12.02;9.88;;;5.10;97.10;;;;;;2064662;28;20089;-75
2021/04/12 03:20:09;;;;;;;10.70;9.15;;;5.10;97.30;;;;;;2064715;28;20482;-75
2021/04/12 03:21:27;;;;;;;13.18;10.60;;;5.10;97.40;;;;;;2064734;28;20076;-75
2021/04/12 03:22:59;;;;;;;13.85;10.90;;;5.00;97.30;;;;;;2064798;28;20437;-75
2021/04/12 03:24:33;;;;;;;15.23;10.93;;;5.00;97.50;;;;;;2064782;28;20060;-74
2021/04/12 03:26:02;;;;;;;15.07;11.23;;;5.00;97.60;;;;;;2063987;28;20093;-75
2021/04/12 03:27:38;;;;;;;14.25;11.20;;;5.00;97.90;;;;;;2064397;28;20034;-75
2021/04/12 03:29:04;;;;;;;16.10;11.13;;;5.00;97.80;;;;;;2064531;28;20045;-75
2021/04/12 03:30:44;;;;;;;13.23;10.93;;;5.00;97.80;;;;;;2064660;28;20052;-75
2021/04/12 03:32:13;;;;;;;14.35;10.82;;;5.00;98.10;;;;;;2064691;28;20027;-74
2021/04/12 03:33:25;;;;;;;13.60;10.82;;;5.00;98.00;;;;;;2064014;28;20027;-74
2021/04/12 03:34:58;;;;;;;12.43;10.00;;;5.00;97.70;;;;;;2064244;28;20061;-75
2021/04/12 03:36:17;;;;;;;16.35;10.60;;;4.90;97.30;;;;;;2064227;28;20073;-75
2021/04/12 03:37:18;;;;;;;13.80;11.02;;;4.80;97.30;;;;;;2064568;28;20023;-74
2021/04/12 03:38:59;;;;;;;12.52;10.40;;;4.80;97.60;;;;;;2064069;28;20042;-74
2021/04/12 03:40:15;;;;;;;12.32;9.70;;;4.80;97.70;;;;;;2037035;29;20039;-75
2021/04/12 03:41:54;;;;;;;13.85;10.55;;;4.70;97.60;;;;;;2039629;29;20027;-74
2021/04/12 03:43:36;;;;;;;11.90;9.75;;;4.80;97.70;;;;;;2039614;29;20132;-75
2021/04/12 03:45:16;;;;;;;12.35;9.75;;;4.80;97.70;;;;;;2039863;29;20032;-74
2021/04/12 03:47:05;;;;;;;13.32;9.73;;;4.80;97.60;;;;;;2063946;28;20579;-75
2021/04/12 03:48:35;;;;;;;12.55;10.15;;;4.70;97.30;;;;;;2045834;29;20019;-74
2021/04/12 03:49:54;;;;;;;13.52;10.07;;;4.70;97.50;;;;;;2064312;28;20038;-75
2021/04/12 03:51:25;;;;;;;12.50;9.90;;;4.70;97.40;;;;;;2063980;28;20030;-75
2021/04/12 03:52:50;;;;;;;15.63;9.52;;;4.70;97.30;;;;;;2064218;28;20076;-74
2021/04/12 03:54:03;;;;;;;11.70;9.20;;;4.60;97.20;;;;;;2064380;28;20438;-75
2021/04/12 03:55:19;;;;;;;12.60;9.70;;;4.60;97.40;;;;;;2072040;28;20072;-74
2021/04/12 03:56:40;;;;;;;12.32;9.55;;;4.60;97.50;;;;;;2070003;28;20089;-75
2021/04/12 03:58:04;;;;;;;13.73;9.23;;;4.60;97.10;;;;;;2064476;28;20405;-75
2021/04/12 03:59:32;;;;;;;12.77;8.93;;;4.60;97.30;;;;;;2064042;28;20033;-74
2021/04/12 04:00:52;;;;;;;11.98;9.35;;;4.60;97.20;;;;;;2064308;28;20507;-75
2021/04/12 04:02:33;;;;;;;13.52;9.80;;;4.60;97.10;;;;;;2063937;28;20397;-75
2021/04/12 04:03:52;;;;;;;12.20;9.65;;;4.60;97.50;;;;;;2045375;29;20039;-75
2021/04/12 04:05:14;;;;;;;15.27;9.93;;;4.60;97.70;;;;;;2047732;29;20112;-74
2021/04/12 04:06:28;;;;;;;13.10;10.18;;;4.60;97.60;;;;;;2061320;28;20057;-75
2021/04/12 04:08:05;;;;;;;11.52;9.40;;;4.60;98.00;;;;;;2064432;28;20122;-75
2021/04/12 04:09:22;;;;;;;15.02;9.85;;;4.60;97.60;;;;;;2061023;28;20069;-75
2021/04/12 04:10:45;;;;;;;12.32;9.40;;;4.70;97.70;;;;;;2066256;28;20648;-74
2021/04/12 04:11:48;;;;;;;12.05;9.52;;;4.70;97.50;;;;;;2069346;28;20441;-74
2021/04/12 04:12:58;;;;;;;13.38;10.25;;;4.60;97.50;;;;;;2064299;28;20050;-74
2021/04/12 04:14:36;;;;;;;12.95;10.30;;;4.60;97.80;;;;;;2064634;28;20076;-75
2021/04/12 04:16:13;;;;;;;15.05;10.35;;;4.60;97.90;;;;;;2064418;28;20061;-74
2021/04/12 04:17:37;;;;;;;14.00;10.50;;;4.60;98.00;;;;;;2071611;28;20025;-74
2021/04/12 04:18:58;;;;;;;14.05;10.43;;;4.60;98.20;;;;;;2068994;28;20109;-74
2021/04/12 04:20:15;;;;;;;13.32;10.13;;;4.60;98.00;;;;;;2063696;28;20031;-74
2021/04/12 04:21:19;;;;;;;11.68;9.65;;;4.60;98.00;;;;;;2063972;28;20061;-76
2021/04/12 04:22:38;;;;;;;12.52;9.95;;;4.60;97.90;;;;;;2063714;28;20030;-76
2021/04/12 04:24:10;;;;;;;12.15;9.50;;;4.60;97.60;;;;;;2063964;28;20045;-76
2021/04/12 04:25:51;;;;;;;11.30;9.05;;;4.60;97.30;;;;;;2064400;28;20105;-74
2021/04/12 04:27:09;;;;;;;13.05;9.98;;;4.60;97.50;;;;;;2071910;28;20555;-74
2021/04/12 04:28:35;;;;;;;12.07;9.45;;;4.70;97.80;;;;;;2063599;28;20076;-75
2021/04/12 04:30:10;;;;;;;12.68;9.77;;;4.70;97.70;;;;;;2064126;28;20030;-74
2021/04/12 04:31:44;;;;;;;11.32;9.02;;;4.70;97.50;;;;;;2064472;28;20385;-74
2021/04/12 04:32:51;;;;;;;11.25;8.65;;;4.70;97.30;;;;;;2071950;28;20029;-73
2021/04/12 04:34:08;;;;;;;11.73;8.40;;;4.70;97.10;;;;;;2071216;28;20073;-76
2021/04/12 04:35:32;;;;;;;13.07;9.30;;;4.70;97.10;;;;;;2064676;28;20114;-76
2021/04/12 04:37:06;;;;;;;12.90;9.32;;;4.70;96.90;;;;;;2063467;28;20077;-76
2021/04/12 04:38:36;;;;;;;11.43;8.95;;;4.70;96.70;;;;;;2068273;28;20129;-76
2021/04/12 04:39:49;;;;;;;13.33;9.10;;;4.70;96.90;;;;;;2068344;28;20103;-76
2021/04/12 04:41:05;;;;;;;14.80;11.15;;;4.70;97.10;;;;;;2064180;28;20269;-76
2021/04/12 04:42:24;;;;;;;15.85;11.93;;;4.70;97.50;;;;;;2066096;28;20397;-74
2021/04/12 04:43:53;;;;;;;16.63;11.68;;;4.70;97.80;;;;;;2069652;28;20165;-74
2021/04/12 04:45:13;;;;;;;13.57;10.73;;;4.60;97.50;;;;;;2064106;28;20100;-74
2021/04/12 04:46:35;;;;;;;13.73;10.63;;;4.60;97.20;;;;;;2063909;28;20465;-75
2021/04/12 04:47:59;;;;;;;15.65;11.20;;;4.40;96.90;;;;;;2064728;28;20482;-76
2021/04/12 04:49:07;;;;;;;15.35;11.20;;;4.30;97.40;;;;;;2064681;28;20397;-76
2021/04/12 04:50:39;;;;;;;16.38;11.15;;;4.20;97.60;;;;;;2064624;28;20030;-75
2021/04/12 04:52:05;;;;;;;16.13;11.38;;;4.20;98.10;;;;;;2064008;28;20050;-75
2021/04/12 04:53:33;;;;;;;19.52;11.38;;;4.20;98.00;;;;;;2066892;28;20113;-75
2021/04/12 04:55:12;;;;;;;14.15;10.32;;;4.20;98.10;;;;;;2068580;28;20031;-74
2021/04/12 04:56:52;;;;;;;15.13;10.07;;;4.10;97.80;;;;;;2065681;28;20038;-77
2021/04/12 04:58:04;;;;;;;14.48;9.82;;;4.10;97.80;;;;;;2064596;28;20129;-74
2021/04/12 04:59:28;;;;;;;14.93;10.43;;;4.00;97.80;;;;;;2063822;28;20041;-75
2021/04/12 05:00:50;;;;;;;16.30;10.60;;;4.00;98.10;;;;;;2064207;28;20332;-75
2021/04/12 05:02:10;;;;;;;15.32;10.15;;;3.90;97.70;;;;;;2065872;28;20663;-75
2021/04/12 05:03:32;;;;;;;15.80;11.07;;;3.90;98.00;;;;;;2066004;28;20164;-75
2021/04/12 05:05:17;;;;;;;16.38;10.90;;;3.90;98.30;;;;;;2065916;28;20041;-76
2021/04/12 05:06:30;;;;;;;14.38;10.30;;;3.90;97.80;;;;;;2027916;28;20044;-75
2021/04/12 05:08:00;;;;;;;16.40;10.63;;;3.90;98.10;;;;;;2065374;28;20073;-75
2021/04/12 05:09:28;;;;;;;18.02;11.15;;;3.90;98.10;;;;;;2065929;28;20034;-75
2021/04/12 05:10:50;;;;;;;17.13;11.43;;;4.00;98.20;;;;;;2065344;28;20034;-73
2021/04/12 05:12:03;;;;;;;15.57;10.75;;;4.00;98.20;;;;;;2065565;28;20038;-73
2021/04/12 05:13:35;;;;;;;14.98;10.75;;;4.00;97.90;;;;;;2065913;28;20045;-75
2021/04/12 05:15:04;;;;;;;14.68;10.57;;;4.00;97.60;;;;;;2066009;28;20018;-74
2021/04/12 05:16:45;;;;;;;14.98;10.63;;;3.90;97.60;;;;;;2065809;28;20030;-74
2021/04/12 05:18:14;;;;;;;15.35;10.57;;;3.90;97.90;;;;;;2067435;28;20023;-73
2021/04/12 05:19:33;;;;;;;15.68;10.40;;;3.90;97.90;;;;;;2067588;28;20030;-75
2021/04/12 05:21:04;;;;;;;14.15;10.05;;;3.90;97.80;;;;;;2066137;28;20061;-75
2021/04/12 05:22:26;;;;;;;12.45;8.98;;;3.90;97.50;;;;;;2069947;28;20018;-74
2021/04/12 05:23:48;;;;;;;12.55;9.35;;;4.00;97.30;;;;;;2071009;28;20094;-75
2021/04/12 05:24:51;;;;;;;12.27;8.88;;;4.00;97.00;;;;;;2060555;28;20085;-76
2021/04/12 05:26:17;;;;;;;11.77;8.85;;;3.90;96.90;;;;;;2065070;28;20038;-75
2021/04/12 05:27:32;;;;;;;13.00;8.75;;;3.90;96.60;;;;;;2066404;28;20109;-75
2021/04/12 05:29:02;;;;;;;12.55;8.95;;;3.90;96.90;;;;;;2066033;28;20041;-77
2021/04/12 05:30:37;;;;;;;13.57;9.93;;;3.90;96.70;;;;;;2065271;28;20034;-75
2021/04/12 05:31:56;;;;;;;14.05;9.75;;;3.80;96.90;;;;;;2065746;28;20035;-74
2021/04/12 05:33:33;;;;;;;12.63;9.63;;;3.80;97.00;;;;;;2065718;28;20037;-75
2021/04/12 05:35:01;;;;;;;13.77;9.85;;;3.70;96.90;;;;;;2065055;28;20033;-75
2021/04/12 05:36:18;;;;;;;17.05;10.93;;;3.70;97.20;;;;;;2064770;28;20034;-75
2021/04/12 05:37:50;;;;;;;13.50;9.63;;;3.70;97.60;;;;;;2067873;28;20018;-75
2021/04/12 05:39:39;;;;;;;14.88;10.43;;;3.70;97.90;;;;;;2065964;28;20026;-73
2021/04/12 05:40:55;;;;;;;16.20;10.75;;;3.80;98.00;;;;;;2048525;28;20046;-75
2021/04/12 05:42:33;;;;;;;16.38;11.20;;;3.80;97.60;;;;;;2065189;28;20109;-73
2021/04/12 05:43:49;;;;;;;14.77;10.20;;;3.80;97.70;;;;;;2065548;28;20077;-74
2021/04/12 05:45:26;;;;;;;15.20;10.65;;;3.80;97.70;;;;;;2065405;28;20156;-74
2021/04/12 05:46:59;;;;;;;13.82;10.13;;;3.70;97.60;;;;;;2029521;29;20412;-74
2021/04/12 05:48:41;;;;;;;16.02;10.18;;;3.70;97.70;;;;;;2065526;28;20326;-74
2021/04/12 05:50:02;;;;;;;13.98;9.77;;;3.70;98.20;;;;;;2065642;28;20066;-74
2021/04/12 05:51:18;;;;;;;13.05;9.40;;;3.70;97.70;;;;;;2065672;28;20026;-74
2021/04/12 05:52:30;;;;;;;13.55;10.05;;;3.70;97.40;;;;;;2065566;28;20060;-75
2021/04/12 05:54:18;;;;;;;13.40;9.32;;;3.70;97.60;;;;;;2065482;28;20133;-74
2021/04/12 05:55:19;;;;;;;13.63;9.63;;;3.60;97.40;;;;;;2058538;28;20116;-74
2021/04/12 05:56:26;;;;;;;13.65;10.07;;;3.60;97.10;;;;;;2072366;28;20444;-74
2021/04/12 05:57:51;;;;;;;13.70;9.93;;;3.50;97.10;;;;;;2072190;28;20026;-73
2021/04/12 05:58:52;;;;;;;15.18;10.02;;;3.50;97.40;;;;;;2065560;28;20041;-74
2021/04/12 05:59:53;;;;;;;14.43;10.40;;;3.50;97.60;;;;;;2065630;28;20037;-74
2021/04/12 06:01:33;;;;;;;14.27;10.25;;;3.50;97.60;;;;;;2065471;28;20107;-74
2021/04/12 06:02:53;;;;;;;12.88;9.15;;;3.60;97.60;;;;;;2065752;28;20088;-74
2021/04/12 06:04:21;;;;;;;13.57;9.68;;;3.60;97.20;;;;;;2065393;28;20445;-75
2021/04/12 06:05:29;;;;;;;13.35;9.98;;;3.60;96.80;;;;;;2067778;28;20053;-74
2021/04/12 06:07:07;;;;;;;14.70;10.30;;;3.60;96.70;;;;;;2065157;28;20085;-74
2021/04/12 06:08:50;;;;;;;14.93;10.52;;;3.60;96.90;;;;;;2065313;28;20121;-74
2021/04/12 06:10:18;;;;;;;14.77;10.43;;;3.60;97.40;;;;;;2065586;28;20038;-76
2021/04/12 06:11:32;;;;;;;15.23;10.30;;;3.70;97.50;;;;;;2066214;28;20030;-75
2021/04/12 06:13:00;;;;;;;15.07;10.10;;;3.60;97.40;;;;;;2065419;28;20035;-75
2021/04/12 06:14:41;;;;;;;13.07;9.68;;;3.60;97.30;;;;;;2065977;28;20089;-75
2021/04/12 06:16:26;;;;;;;13.32;10.05;;;3.60;97.30;;;;;;2036635;28;20115;-75
2021/04/12 06:17:45;;;;;;;14.38;10.07;;;3.60;97.20;;;;;;2028061;28;20092;-74
2021/04/12 06:19:12;;;;;;;15.25;10.20;;;3.60;97.70;;;;;;2065694;28;20525;-75
2021/04/12 06:20:49;;;;;;;14.85;10.35;;;3.50;97.20;;;;;;2067882;28;20030;-76
2021/04/12 06:22:01;;;;;;;15.10;9.98;;;3.60;97.20;;;;;;2069689;28;20710;-76
2021/04/12 06:23:26;;;;;;;14.63;10.10;;;3.60;97.20;;;;;;2071144;28;20034;-75
2021/04/12 06:24:48;;;;;;;14.57;10.40;;;3.60;96.90;;;;;;2071745;28;20030;-75
2021/04/12 06:26:10;;;;;;;15.13;10.30;;;3.60;97.20;;;;;;2070384;28;20031;-75
2021/04/12 06:27:23;;;;;;;14.43;9.43;;;3.60;97.10;;;;;;2067902;28;20105;-74
2021/04/12 06:28:48;;;;;;;13.18;9.63;;;3.60;96.90;;;;;;2065473;28;20444;-74
2021/04/12 06:30:21;;;;;;;13.63;9.50;;;3.70;97.20;;;;;;2072494;28;20520;-74
2021/04/12 06:31:40;;;;;;;11.65;8.90;;;3.70;97.10;;;;;;2068539;28;20073;-73
2021/04/12 06:33:19;;;;;;;13.88;9.35;;;3.70;97.20;;;;;;2065256;28;20029;-73
2021/04/12 06:34:22;;;;;;;14.27;9.73;;;3.80;97.30;;;;;;2065763;28;20113;-74
2021/04/12 06:35:44;;;;;;;13.20;9.75;;;3.80;97.20;;;;;;2065540;28;20100;-75
2021/04/12 06:36:54;;;;;;;12.50;9.00;;;3.80;96.80;;;;;;2064703;28;20027;-75
2021/04/12 06:38:18;;;;;;;14.40;10.07;;;3.80;97.00;;;;;;2064937;28;20031;-74
2021/04/12 06:39:41;;;;;;;13.13;9.38;;;3.80;97.20;;;;;;2064311;28;20149;-74
2021/04/12 06:41:19;;;;;;;12.93;9.43;;;3.80;97.20;;;;;;2067469;28;20030;-76
2021/04/12 06:42:57;;;;;;;13.25;8.98;;;3.80;97.00;;;;;;2068235;28;20019;-74
2021/04/12 06:44:25;;;;;;;12.23;8.77;;;3.80;97.10;;;;;;2065111;28;20537;-75
2021/04/12 06:45:46;;;;;;;11.85;8.93;;;3.80;97.20;;;;;;2064830;28;20493;-73
2021/04/12 06:46:49;;;;;;;;;;;3.80;96.80;;;;;;2051651;28;20448;-77
2021/04/12 06:48:09;;;;;;;12.38;9.15;;;3.80;96.60;;;;;;2064907;28;20273;-74
2021/04/12 06:49:53;;;;;;;13.05;9.02;;;3.80;96.60;;;;;;2065442;28;20113;-76
2021/04/12 06:51:18;;;;;;;13.40;9.70;;;3.80;96.80;;;;;;2024815;29;20037;-77
2021/04/12 06:52:43;;;;;;;11.82;8.73;;;3.80;97.00;;;;;;2059905;28;20068;-78
2021/04/12 06:54:02;;;;;;;12.82;9.48;;;3.80;96.90;;;;;;2068127;28;20022;-77
2021/04/12 06:55:19;;;;;;;15.07;10.38;;;3.80;97.20;;;;;;2064711;28;20038;-77
2021/04/12 06:56:21;;;;;;;15.30;10.93;;;3.80;97.10;;;;;;2064425;28;20041;-77
2021/04/12 06:57:54;;;;;;;14.73;9.55;;;3.80;97.20;;;;;;2065431;28;20027;-77
2021/04/12 06:59:20;;;;;;;12.60;9.18;;;3.80;96.90;;;;;;2028007;28;20076;-79
2021/04/12 07:00:42;;;;;;;13.65;9.70;;;3.80;97.00;;;;;;2065265;28;20011;-78
2021/04/12 07:02:04;;;;;;;11.32;9.00;;;3.80;96.80;;;;;;2064821;28;20030;-77
2021/04/12 07:03:32;;;;;;;13.82;9.60;;;3.90;96.90;;;;;;2064992;28;20026;-77
2021/04/12 07:05:27;;;;;;;12.85;9.60;;;3.90;96.90;;;;;;2065077;28;20030;-77
2021/04/12 07:07:00;;;;;;;13.02;9.73;;;3.90;97.10;;;;;;2024551;29;20043;-78
2021/04/12 07:08:28;;;;;;;15.05;10.65;;;4.00;96.90;;;;;;2029228;29;20051;-78
2021/04/12 07:10:04;;;;;;;14.32;10.38;;;4.00;96.80;;;;;;2069804;28;20038;-76
2021/04/12 07:11:36;;;;;;;12.75;9.88;;;4.10;96.70;;;;;;2065478;28;20018;-76
2021/04/12 07:13:04;;;;;;;14.57;10.30;;;4.20;96.70;;;;;;2064980;28;20030;-76